Time;durP1;ratioP1;P1;durP2;ratioP2;P2;SDS_P1;SDS_P2;PMS_P1;PMS_P2;Temp;Humidity;BMP_temperature;BMP_pressure;BME280_temperature;BME280_humidity;BME280_pressure;Samples;Min_cycle;Max_cycle;Signal;HPM_P1;HPM_P2
2021/10/08 00:01:40;;;;;;;4.13;3.43;;;12.40;99.90;;;;;;5018870;28;20201;-82
2021/10/08 00:04:06;;;;;;;4.13;3.50;;;12.40;99.90;;;;;;5018353;28;20241;-82
2021/10/08 00:06:32;;;;;;;4.23;3.83;;;12.40;99.90;;;;;;5018407;28;20491;-81
2021/10/08 00:08:58;;;;;;;4.73;4.00;;;12.40;99.90;;;;;;5017206;28;20168;-79
2021/10/08 00:11:25;;;;;;;4.70;3.40;;;12.40;99.90;;;;;;5017858;28;20809;-83
2021/10/08 00:13:51;;;;;;;4.27;3.77;;;12.40;99.90;;;;;;5017675;28;20722;-82
2021/10/08 00:16:17;;;;;;;5.13;4.63;;;12.40;99.90;;;;;;5017091;28;20420;-82
2021/10/08 00:18:43;;;;;;;4.50;3.70;;;12.30;99.90;;;;;;5017687;28;20452;-82
2021/10/08 00:21:08;;;;;;;5.27;4.00;;;12.30;99.90;;;;;;5018926;28;20193;-82
2021/10/08 00:23:35;;;;;;;5.40;4.00;;;12.30;99.90;;;;;;5018377;28;20166;-81
2021/10/08 00:26:02;;;;;;;8.70;3.67;;;12.30;99.90;;;;;;5017425;28;20175;-84
2021/10/08 00:28:27;;;;;;;3.77;3.47;;;12.20;99.90;;;;;;5017463;28;20393;-82
2021/10/08 00:30:53;;;;;;;4.17;3.87;;;12.20;99.90;;;;;;5017245;28;20730;-82
2021/10/08 00:33:19;;;;;;;5.10;4.30;;;12.20;99.90;;;;;;5018062;28;20169;-82
2021/10/08 00:35:45;;;;;;;4.13;3.73;;;12.20;99.90;;;;;;5017945;28;20198;-82
2021/10/08 00:38:10;;;;;;;4.53;3.20;;;12.20;99.90;;;;;;5018925;28;20272;-82
2021/10/08 00:40:40;;;;;;;3.80;3.17;;;12.10;99.90;;;;;;5018212;28;20192;-82
2021/10/08 00:43:07;;;;;;;9.13;5.27;;;12.10;99.90;;;;;;5017633;28;20297;-82
2021/10/08 00:45:33;;;;;;;6.20;4.27;;;12.10;99.90;;;;;;5016625;28;20399;-82
2021/10/08 00:48:02;;;;;;;4.40;4.00;;;12.10;99.90;;;;;;5017813;28;20503;-81
2021/10/08 00:50:28;;;;;;;3.80;3.50;;;12.00;99.90;;;;;;5015782;28;20411;-82
2021/10/08 00:52:54;;;;;;;7.50;4.73;;;12.00;99.90;;;;;;5015919;28;20408;-81
2021/10/08 00:55:20;;;;;;;5.37;4.33;;;11.90;99.90;;;;;;5018732;28;20919;-82
2021/10/08 00:57:47;;;;;;;4.47;4.07;;;12.00;99.90;;;;;;5019258;28;20223;-82
2021/10/08 01:00:15;;;;;;;4.93;3.83;;;11.80;99.90;;;;;;5020584;28;20210;-82
2021/10/08 01:02:41;;;;;;;4.37;3.60;;;11.90;99.90;;;;;;5020254;28;20471;-82
2021/10/08 01:05:08;;;;;;;5.13;4.63;;;11.90;99.90;;;;;;5020522;28;20416;-82
2021/10/08 01:07:33;;;;;;;4.30;3.70;;;11.90;99.90;;;;;;5020538;28;20392;-82
2021/10/08 01:10:04;;;;;;;4.43;4.03;;;11.90;99.90;;;;;;5021035;28;20392;-80
2021/10/08 01:12:30;;;;;;;5.60;4.83;;;11.80;99.90;;;;;;5019226;28;20177;-82
2021/10/08 01:14:56;;;;;;;5.20;4.20;;;11.80;99.90;;;;;;5018929;28;20411;-82
2021/10/08 01:17:24;;;;;;;5.67;4.63;;;11.80;99.90;;;;;;5020178;28;20877;-82
2021/10/08 01:19:50;;;;;;;5.10;4.70;;;11.80;99.90;;;;;;5019843;28;20221;-80
2021/10/08 01:22:15;;;;;;;4.20;3.77;;;11.70;99.90;;;;;;5019680;28;20439;-82
2021/10/08 01:24:41;;;;;;;13.93;4.27;;;11.70;99.90;;;;;;5019980;28;20539;-82
2021/10/08 01:27:09;;;;;;;3.57;3.37;;;11.60;99.90;;;;;;5019897;28;20199;-81
2021/10/08 01:29:50;;;;;;;4.13;3.83;;;11.70;99.90;;;;;;5020785;28;20713;-82
2021/10/08 01:32:16;;;;;;;4.83;4.40;;;11.70;99.90;;;;;;5019710;28;20488;-82
2021/10/08 01:34:42;;;;;;;8.03;4.77;;;11.70;99.90;;;;;;5020946;28;20866;-82
2021/10/08 01:37:08;;;;;;;4.13;3.83;;;11.70;99.90;;;;;;5019874;28;20463;-82
2021/10/08 01:39:33;;;;;;;4.27;3.87;;;11.70;99.90;;;;;;5020861;28;20193;-80
2021/10/08 01:41:59;;;;;;;5.33;4.60;;;11.60;99.90;;;;;;5020894;28;20165;-83
2021/10/08 01:44:25;;;;;;;4.13;3.83;;;11.60;99.90;;;;;;5019614;28;20184;-82
2021/10/08 01:46:51;;;;;;;4.30;3.80;;;11.60;99.90;;;;;;5019708;28;20515;-82
2021/10/08 01:49:17;;;;;;;4.40;3.77;;;11.60;99.90;;;;;;5019620;28;20162;-82
2021/10/08 01:51:42;;;;;;;3.40;3.10;;;11.60;99.90;;;;;;5019853;28;20252;-82
2021/10/08 01:54:10;;;;;;;3.93;3.50;;;11.60;99.90;;;;;;5020296;28;20595;-82
2021/10/08 01:56:40;;;;;;;4.43;4.07;;;11.60;99.90;;;;;;5019755;28;20166;-82
2021/10/08 01:59:07;;;;;;;3.80;3.40;;;11.60;99.90;;;;;;5019926;28;20451;-82
2021/10/08 02:01:33;;;;;;;4.23;3.83;;;11.60;99.90;;;;;;5019709;28;20401;-82
2021/10/08 02:03:58;;;;;;;4.93;4.53;;;11.60;99.90;;;;;;5021890;28;20459;-81
2021/10/08 02:06:24;;;;;;;5.47;3.40;;;11.60;99.90;;;;;;5021779;28;20165;-81
2021/10/08 02:08:50;;;;;;;5.07;3.60;;;11.50;99.90;;;;;;5020349;28;20337;-81
2021/10/08 02:11:16;;;;;;;4.17;3.77;;;11.50;99.90;;;;;;5022749;28;20428;-82
2021/10/08 02:13:42;;;;;;;4.10;3.70;;;11.50;99.90;;;;;;5022706;28;20518;-82
2021/10/08 02:16:08;;;;;;;4.17;3.67;;;11.50;99.90;;;;;;5021320;28;20233;-82
2021/10/08 02:18:34;;;;;;;4.27;3.90;;;11.50;99.90;;;;;;5024122;28;20200;-82
2021/10/08 02:21:00;;;;;;;8.23;4.00;;;11.50;99.90;;;;;;5028138;28;20428;-81
2021/10/08 02:23:26;;;;;;;6.47;4.10;;;11.50;99.90;;;;;;5021445;28;20393;-82
2021/10/08 02:25:52;;;;;;;4.30;3.93;;;11.50;99.90;;;;;;5019990;28;20392;-82
2021/10/08 02:28:17;;;;;;;4.30;3.87;;;11.50;99.90;;;;;;5021425;28;20158;-82
2021/10/08 02:30:43;;;;;;;5.83;3.90;;;11.40;99.90;;;;;;5021514;28;20175;-82
2021/10/08 02:33:09;;;;;;;4.15;3.75;;;11.40;99.90;;;;;;5020187;28;20442;-82
2021/10/08 02:35:35;;;;;;;8.90;4.60;;;11.40;99.90;;;;;;5019421;28;20517;-82
2021/10/08 02:38:01;;;;;;;5.10;3.57;;;11.40;99.90;;;;;;5019571;28;20440;-82
2021/10/08 02:40:27;;;;;;;4.50;4.10;;;11.30;99.90;;;;;;5020151;28;20161;-82
2021/10/08 02:42:52;;;;;;;3.77;3.23;;;11.30;99.90;;;;;;5018819;28;20180;-82
2021/10/08 02:45:20;;;;;;;5.77;4.40;;;11.30;99.90;;;;;;5018483;28;20162;-82
2021/10/08 02:47:46;;;;;;;3.93;3.60;;;11.30;99.90;;;;;;5019114;28;20161;-82
2021/10/08 02:50:12;;;;;;;5.10;4.20;;;11.30;99.90;;;;;;5018698;28;20853;-82
2021/10/08 02:52:38;;;;;;;5.33;4.43;;;11.30;99.90;;;;;;5019334;28;20513;-82
2021/10/08 02:55:06;;;;;;;6.63;4.53;;;11.30;99.90;;;;;;5018562;28;20393;-82
2021/10/08 02:57:32;;;;;;;5.10;4.10;;;11.20;99.90;;;;;;5018983;28;20403;-82
2021/10/08 02:59:58;;;;;;;6.00;4.53;;;11.20;99.90;;;;;;5018542;28;20481;-82
2021/10/08 03:02:24;;;;;;;3.87;3.57;;;11.20;99.90;;;;;;5017593;28;20396;-82
2021/10/08 03:04:49;;;;;;;4.50;4.10;;;11.20;99.90;;;;;;5017580;28;20193;-82
2021/10/08 03:07:15;;;;;;;4.93;4.53;;;11.20;99.90;;;;;;5017332;28;20931;-82
2021/10/08 03:09:41;;;;;;;4.63;4.23;;;11.20;99.90;;;;;;5018904;28;20270;-82
2021/10/08 03:12:07;;;;;;;5.00;4.50;;;11.20;99.90;;;;;;5000996;28;20208;-82
2021/10/08 03:14:33;;;;;;;6.33;3.93;;;11.20;99.90;;;;;;5019063;28;20161;-82
2021/10/08 03:16:59;;;;;;;5.50;4.23;;;11.10;99.90;;;;;;5019402;28;20157;-82
2021/10/08 03:19:24;;;;;;;6.23;5.10;;;11.10;99.90;;;;;;5018015;28;20201;-82
2021/10/08 03:21:50;;;;;;;6.50;4.57;;;11.10;99.90;;;;;;5017163;28;20557;-82
2021/10/08 03:24:16;;;;;;;4.40;4.00;;;11.10;99.90;;;;;;5017992;28;20162;-82
2021/10/08 03:26:42;;;;;;;5.73;5.00;;;11.10;99.90;;;;;;5018252;28;20162;-82
2021/10/08 03:29:07;;;;;;;6.23;4.17;;;11.10;99.90;;;;;;5017880;28;20296;-83
2021/10/08 03:31:33;;;;;;;5.33;4.90;;;11.10;99.90;;;;;;5017880;28;20654;-82
2021/10/08 03:33:59;;;;;;;8.60;4.53;;;11.00;99.90;;;;;;5018828;28;20165;-82
2021/10/08 03:36:30;;;;;;;9.90;4.40;;;11.00;99.90;;;;;;5018086;28;20157;-81
2021/10/08 03:38:57;;;;;;;5.50;3.70;;;11.00;99.90;;;;;;5018191;28;20197;-82
2021/10/08 03:41:23;;;;;;;5.90;5.20;;;11.10;99.90;;;;;;5017606;28;20399;-81
2021/10/08 03:43:53;;;;;;;4.87;4.47;;;11.10;99.90;;;;;;5017509;28;20388;-82
2021/10/08 03:46:19;;;;;;;4.73;4.33;;;11.10;99.90;;;;;;5015201;28;20411;-82
2021/10/08 03:49:02;;;;;;;7.30;5.13;;;11.20;99.90;;;;;;5015269;28;20415;-82
2021/10/08 03:51:29;;;;;;;10.50;4.83;;;11.20;99.90;;;;;;5017295;28;20536;-82
2021/10/08 03:53:55;;;;;;;5.43;4.53;;;11.20;99.90;;;;;;5017773;28;20392;-82
2021/10/08 03:56:21;;;;;;;7.23;4.50;;;11.20;99.90;;;;;;5016206;28;20393;-82
2021/10/08 03:58:47;;;;;;;5.40;4.33;;;11.30;99.90;;;;;;5017315;28;20440;-82
2021/10/08 04:01:13;;;;;;;4.00;3.60;;;11.30;99.90;;;;;;5017325;28;20398;-82
2021/10/08 04:03:39;;;;;;;7.03;5.00;;;11.30;99.90;;;;;;5016881;28;20263;-82
2021/10/08 04:06:05;;;;;;;5.30;4.80;;;11.30;99.90;;;;;;5015794;28;20208;-82
2021/10/08 04:08:31;;;;;;;8.83;4.40;;;11.30;99.90;;;;;;5017384;28;20188;-82
2021/10/08 04:10:57;;;;;;;4.80;4.40;;;11.30;99.90;;;;;;5017497;28;20157;-82
2021/10/08 04:13:23;;;;;;;6.30;4.57;;;11.30;99.90;;;;;;5017281;28;20397;-82
2021/10/08 04:15:48;;;;;;;5.40;4.70;;;11.30;99.90;;;;;;5016362;28;20165;-82
2021/10/08 04:18:14;;;;;;;4.40;3.57;;;11.30;99.90;;;;;;5017742;28;20716;-82
2021/10/08 04:20:41;;;;;;;5.13;4.73;;;11.30;99.90;;;;;;5018750;28;20192;-83
2021/10/08 04:23:10;;;;;;;6.83;4.60;;;11.30;99.90;;;;;;5020142;28;20391;-83
2021/10/08 04:25:36;;;;;;;5.90;4.83;;;11.30;99.90;;;;;;5019753;28;20396;-82
2021/10/08 04:28:02;;;;;;;6.93;4.73;;;11.30;99.90;;;;;;5019271;28;20169;-82
2021/10/08 04:30:28;;;;;;;6.00;5.20;;;11.30;99.90;;;;;;5022697;28;20392;-81
2021/10/08 04:32:54;;;;;;;6.70;4.40;;;11.40;99.90;;;;;;5027851;28;20494;-82
2021/10/08 04:35:19;;;;;;;6.20;5.70;;;11.30;99.90;;;;;;5028095;28;20181;-82
2021/10/08 04:37:45;;;;;;;5.70;4.87;;;11.40;99.90;;;;;;5028730;28;20164;-82
2021/10/08 04:40:12;;;;;;;4.60;4.20;;;11.40;99.90;;;;;;5029184;28;20157;-82
2021/10/08 04:42:37;;;;;;;5.93;5.20;;;11.40;99.90;;;;;;5024878;28;20172;-82
2021/10/08 04:45:04;;;;;;;5.60;4.13;;;11.40;99.90;;;;;;5024517;28;20393;-82
2021/10/08 04:47:30;;;;;;;5.67;5.20;;;11.40;99.90;;;;;;5023070;28;20191;-81
2021/10/08 04:49:56;;;;;;;6.80;4.13;;;11.40;99.90;;;;;;5022121;28;20472;-82
2021/10/08 04:52:24;;;;;;;5.00;4.57;;;11.40;99.90;;;;;;5021879;28;20164;-82
2021/10/08 04:54:50;;;;;;;6.00;5.03;;;11.40;99.90;;;;;;5022012;28;20436;-82
2021/10/08 04:57:17;;;;;;;4.50;4.10;;;11.40;99.90;;;;;;5021076;28;20191;-82
2021/10/08 04:59:43;;;;;;;5.13;4.53;;;11.40;99.90;;;;;;5021291;28;20447;-82
2021/10/08 05:02:09;;;;;;;7.10;4.83;;;11.50;99.90;;;;;;5022450;28;20400;-82
2021/10/08 05:04:34;;;;;;;5.10;4.60;;;11.50;99.90;;;;;;5022065;28;20166;-82
2021/10/08 05:07:00;;;;;;;8.37;5.70;;;11.50;99.90;;;;;;5019791;28;20404;-82
2021/10/08 05:09:26;;;;;;;6.70;5.50;;;11.50;99.90;;;;;;5021194;28;20192;-83
2021/10/08 05:11:52;;;;;;;5.70;5.00;;;11.60;99.90;;;;;;5021240;28;20396;-82
2021/10/08 05:14:18;;;;;;;5.83;4.97;;;11.60;99.90;;;;;;5022182;28;20592;-81
2021/10/08 05:16:44;;;;;;;7.00;5.10;;;11.60;99.90;;;;;;5021719;28;20482;-81
2021/10/08 05:19:10;;;;;;;5.73;5.20;;;11.60;99.90;;;;;;5021294;28;20193;-83
2021/10/08 05:21:36;;;;;;;7.13;5.60;;;11.60;99.90;;;;;;5021024;28;20436;-82
2021/10/08 05:24:02;;;;;;;6.23;4.73;;;11.40;99.90;;;;;;5020681;28;20261;-80
2021/10/08 05:26:27;;;;;;;5.30;4.80;;;11.50;99.90;;;;;;5019351;28;20350;-84
2021/10/08 05:28:53;;;;;;;5.77;4.67;;;11.50;99.90;;;;;;5021338;28;20455;-81
2021/10/08 05:31:19;;;;;;;7.97;6.37;;;11.40;99.90;;;;;;5020116;28;20569;-81
2021/10/08 05:33:45;;;;;;;5.43;4.70;;;11.50;99.90;;;;;;5019389;28;20188;-82
2021/10/08 05:36:11;;;;;;;8.43;5.50;;;11.50;99.90;;;;;;5019834;28;20188;-83
2021/10/08 05:38:37;;;;;;;4.80;4.40;;;11.50;99.90;;;;;;5014189;28;20516;-83
2021/10/08 05:41:03;;;;;;;6.13;5.27;;;11.50;99.90;;;;;;5010566;28;20166;-82
2021/10/08 05:43:29;;;;;;;6.03;5.47;;;11.50;99.90;;;;;;5019369;28;20241;-80
2021/10/08 05:45:55;;;;;;;6.33;5.73;;;11.50;99.90;;;;;;5012587;28;20598;-82
2021/10/08 05:48:21;;;;;;;8.00;6.13;;;11.60;99.90;;;;;;5001579;28;20425;-81
2021/10/08 05:50:47;;;;;;;7.30;5.37;;;11.60;99.90;;;;;;5012557;28;20447;-82
2021/10/08 05:53:13;;;;;;;13.17;6.13;;;11.50;99.90;;;;;;5017311;28;20200;-82
2021/10/08 05:55:39;;;;;;;9.03;5.40;;;11.50;99.90;;;;;;4983363;28;20499;-82
2021/10/08 05:58:06;;;;;;;7.40;4.97;;;11.20;99.90;;;;;;5018836;28;20447;-82
2021/10/08 06:00:35;;;;;;;8.40;5.10;;;11.00;99.90;;;;;;5018236;28;20467;-82
2021/10/08 06:03:02;;;;;;;6.37;5.67;;;11.10;99.90;;;;;;5018545;28;20420;-82
2021/10/08 06:05:29;;;;;;;11.93;7.07;;;11.10;99.90;;;;;;5016479;28;20497;-81
2021/10/08 06:07:55;;;;;;;6.93;6.33;;;11.30;99.90;;;;;;5018270;28;20420;-82
2021/10/08 06:10:21;;;;;;;7.57;6.13;;;11.40;99.90;;;;;;5015253;28;20439;-82
2021/10/08 06:12:47;;;;;;;6.40;4.73;;;11.40;99.90;;;;;;5027610;28;20178;-80
2021/10/08 06:15:12;;;;;;;7.60;6.07;;;11.50;99.90;;;;;;5017256;28;20185;-82
2021/10/08 06:17:38;;;;;;;6.33;5.73;;;11.50;99.90;;;;;;5016059;28;20181;-82
2021/10/08 06:20:05;;;;;;;6.20;5.13;;;11.60;99.90;;;;;;5015741;28;20173;-81
2021/10/08 06:22:31;;;;;;;6.83;6.13;;;11.60;99.90;;;;;;5016881;28;20648;-81
2021/10/08 06:24:57;;;;;;;7.07;5.40;;;11.70;99.90;;;;;;5015621;28;20515;-82
2021/10/08 06:27:25;;;;;;;9.70;4.90;;;11.70;99.90;;;;;;5016567;28;20892;-81
2021/10/08 06:29:50;;;;;;;6.10;5.07;;;11.70;99.90;;;;;;5020520;28;20519;-82
2021/10/08 06:32:16;;;;;;;6.87;4.93;;;11.70;99.90;;;;;;5012892;28;20571;-83
2021/10/08 06:34:42;;;;;;;5.67;5.10;;;11.80;99.90;;;;;;5011910;28;20219;-82
2021/10/08 06:37:08;;;;;;;10.73;5.70;;;11.80;99.90;;;;;;5015960;28;20193;-82
2021/10/08 06:39:33;;;;;;;9.00;6.23;;;11.80;99.90;;;;;;5013216;28;20672;-82
2021/10/08 06:41:59;;;;;;;6.93;5.77;;;11.80;99.90;;;;;;5015911;28;20193;-82
2021/10/08 06:44:25;;;;;;;6.10;5.43;;;11.80;99.90;;;;;;5015376;28;20589;-82
2021/10/08 06:46:51;;;;;;;7.53;6.10;;;11.90;99.90;;;;;;5013008;28;20192;-81
2021/10/08 06:49:18;;;;;;;7.10;6.13;;;12.00;99.90;;;;;;5013892;28;20197;-82
2021/10/08 06:51:44;;;;;;;7.77;5.03;;;11.90;99.90;;;;;;5008649;28;20193;-83
2021/10/08 06:54:09;;;;;;;7.63;4.77;;;12.00;99.90;;;;;;5009915;28;20436;-81
2021/10/08 06:56:35;;;;;;;9.30;5.27;;;12.00;99.90;;;;;;5008341;28;20189;-82
2021/10/08 06:59:01;;;;;;;8.03;5.30;;;12.00;99.90;;;;;;5004542;28;21321;-83
2021/10/08 07:01:27;;;;;;;8.50;6.30;;;12.10;99.90;;;;;;5002300;28;20188;-81
2021/10/08 07:03:53;;;;;;;6.73;5.50;;;12.10;99.90;;;;;;5003274;28;20181;-80
2021/10/08 07:06:19;;;;;;;6.10;5.53;;;12.10;99.90;;;;;;5001876;28;20637;-83
2021/10/08 07:08:44;;;;;;;7.03;6.20;;;12.20;99.90;;;;;;5009856;28;20497;-82
2021/10/08 07:11:10;;;;;;;14.77;6.47;;;12.30;99.90;;;;;;5006713;28;20181;-83
2021/10/08 07:13:36;;;;;;;6.80;5.80;;;12.30;99.90;;;;;;5008156;28;20643;-82
2021/10/08 07:16:02;;;;;;;6.10;5.50;;;12.40;99.90;;;;;;5006247;28;20182;-83
2021/10/08 07:18:36;;;;;;;7.80;5.90;;;12.50;99.90;;;;;;5012329;28;20248;-83
2021/10/08 07:21:03;;;;;;;8.40;5.70;;;12.50;99.90;;;;;;5010458;28;20471;-83
2021/10/08 07:23:29;;;;;;;6.73;6.03;;;12.60;99.90;;;;;;4989607;28;21448;-82
2021/10/08 07:25:55;;;;;;;9.10;5.77;;;12.70;99.90;;;;;;5008888;28;20436;-82
2021/10/08 07:28:21;;;;;;;6.03;5.43;;;12.70;99.90;;;;;;5011038;28;20436;-82
2021/10/08 07:30:47;;;;;;;9.13;6.00;;;12.70;99.90;;;;;;5016101;28;20210;-82
2021/10/08 07:33:14;;;;;;;9.67;6.40;;;12.80;99.90;;;;;;5011671;28;20471;-82
2021/10/08 07:35:39;;;;;;;8.73;6.83;;;12.80;99.90;;;;;;5016221;28;20436;-82
2021/10/08 07:38:05;;;;;;;10.13;6.00;;;12.80;99.90;;;;;;5012722;28;20824;-80
2021/10/08 07:40:33;;;;;;;10.00;8.53;;;12.90;99.90;;;;;;5012628;28;20706;-79
2021/10/08 07:42:59;;;;;;;10.67;6.33;;;12.90;99.90;;;;;;5005479;28;20436;-79
2021/10/08 07:45:24;;;;;;;17.10;6.90;;;12.90;99.90;;;;;;5007218;28;20459;-81
2021/10/08 07:47:50;;;;;;;11.90;8.20;;;13.00;99.90;;;;;;5009072;28;20189;-81
2021/10/08 07:50:16;;;;;;;9.20;6.33;;;13.10;99.90;;;;;;5011018;28;20212;-82
2021/10/08 07:52:42;;;;;;;8.90;7.10;;;13.20;99.90;;;;;;5011058;28;20197;-82
2021/10/08 07:55:10;;;;;;;9.93;6.67;;;13.20;99.90;;;;;;5010570;28;20195;-82
2021/10/08 07:57:37;;;;;;;8.20;6.63;;;13.30;99.90;;;;;;5006781;28;20463;-83
2021/10/08 08:00:06;;;;;;;7.90;7.20;;;13.50;99.90;;;;;;5011671;28;20460;-83
2021/10/08 08:02:32;;;;;;;11.47;7.73;;;13.60;99.90;;;;;;4993222;28;20996;-83
2021/10/08 08:04:57;;;;;;;10.37;7.10;;;13.70;99.90;;;;;;5012699;28;20457;-79
2021/10/08 08:07:24;;;;;;;12.00;9.47;;;14.00;99.90;;;;;;5006230;28;20239;-82
2021/10/08 08:09:50;;;;;;;9.90;8.90;;;14.20;99.90;;;;;;5006561;28;20191;-82
2021/10/08 08:12:18;;;;;;;12.03;7.90;;;14.60;99.90;;;;;;5011786;28;21093;-81
2021/10/08 08:14:44;;;;;;;13.30;8.17;;;14.80;99.90;;;;;;5013896;28;20808;-82
2021/10/08 08:17:10;;;;;;;11.20;8.60;;;15.00;99.90;;;;;;4971551;28;20448;-82
2021/10/08 08:19:36;;;;;;;11.67;8.30;;;15.20;99.90;;;;;;4953797;28;20472;-82
2021/10/08 08:22:02;;;;;;;10.37;9.07;;;15.40;99.90;;;;;;4967860;28;20578;-82
2021/10/08 08:24:29;;;;;;;13.27;9.03;;;15.50;99.90;;;;;;4966735;28;20179;-82
2021/10/08 08:26:56;;;;;;;11.67;9.43;;;15.50;99.90;;;;;;4968838;28;20446;-83
2021/10/08 08:29:22;;;;;;;15.53;8.47;;;15.30;99.90;;;;;;4966627;28;20586;-82
2021/10/08 08:31:48;;;;;;;15.30;8.63;;;15.30;99.90;;;;;;4966291;28;20905;-82
2021/10/08 08:34:14;;;;;;;10.93;8.37;;;15.10;99.90;;;;;;4967574;28;20465;-82
2021/10/08 08:36:40;;;;;;;13.83;8.77;;;15.00;99.90;;;;;;4951618;28;20205;-82
2021/10/08 08:39:09;;;;;;;8.97;7.57;;;15.00;99.90;;;;;;4967430;28;20328;-82
2021/10/08 08:41:35;;;;;;;9.83;8.80;;;15.00;99.90;;;;;;4966775;28;20289;-82
2021/10/08 08:44:02;;;;;;;13.40;8.80;;;15.10;99.90;;;;;;4963176;28;20438;-84
2021/10/08 08:46:29;;;;;;;14.37;10.77;;;15.10;99.90;;;;;;4967496;28;20553;-83
2021/10/08 08:48:55;;;;;;;11.10;9.87;;;14.80;99.90;;;;;;4999841;28;20570;-83
2021/10/08 08:51:25;;;;;;;31.57;11.37;;;14.70;99.90;;;;;;5005172;28;20436;-82
2021/10/08 08:53:53;;;;;;;13.10;10.37;;;14.60;99.90;;;;;;5005541;28;20634;-82
2021/10/08 08:56:19;;;;;;;16.97;11.00;;;14.80;99.90;;;;;;5010117;28;20467;-83
2021/10/08 08:58:45;;;;;;;16.57;12.37;;;14.80;99.90;;;;;;5010309;28;20456;-82
2021/10/08 09:01:11;;;;;;;18.33;12.43;;;14.90;99.90;;;;;;5012161;28;20885;-79
2021/10/08 09:03:37;;;;;;;13.70;10.43;;;14.70;99.90;;;;;;5009634;28;20681;-83
2021/10/08 09:06:03;;;;;;;16.63;10.67;;;14.80;99.90;;;;;;5005911;28;20630;-82
2021/10/08 09:08:33;;;;;;;15.90;10.60;;;14.60;99.90;;;;;;5004817;28;20185;-82
2021/10/08 09:11:05;;;;;;;25.53;13.07;;;14.70;99.90;;;;;;5008489;28;20268;-81
2021/10/08 09:13:31;;;;;;;15.13;12.20;;;14.70;99.90;;;;;;5008333;28;20442;-82
2021/10/08 09:15:59;;;;;;;18.00;10.83;;;14.60;99.90;;;;;;5007467;28;20443;-82
2021/10/08 09:18:28;;;;;;;15.00;10.93;;;14.60;99.90;;;;;;5010954;28;20451;-81
2021/10/08 09:21:09;;;;;;;12.37;10.10;;;14.70;99.90;;;;;;5010758;28;20546;-83
2021/10/08 09:23:38;;;;;;;12.23;9.70;;;14.70;99.90;;;;;;5011360;28;20462;-82
2021/10/08 09:26:16;;;;;;;12.13;9.67;;;14.80;99.90;;;;;;5013186;28;20963;-83
2021/10/08 09:28:59;;;;;;;11.80;9.70;;;14.80;99.90;;;;;;5011379;28;20431;-83
2021/10/08 09:31:37;;;;;;;14.47;13.20;;;14.80;99.90;;;;;;5009199;28;20475;-82
2021/10/08 09:34:21;;;;;;;14.10;9.77;;;14.80;99.90;;;;;;5009969;28;20455;-81
2021/10/08 09:36:53;;;;;;;11.40;9.07;;;15.00;99.90;;;;;;5010005;28;20431;-83
2021/10/08 09:39:23;;;;;;;12.87;9.17;;;15.20;99.90;;;;;;5006882;28;20463;-83
2021/10/08 09:41:58;;;;;;;13.30;10.27;;;15.60;99.90;;;;;;5012735;28;20544;-82
2021/10/08 09:44:25;;;;;;;13.33;10.10;;;18.20;99.90;;;;;;5008405;28;20498;-83
2021/10/08 09:46:51;;;;;;;14.23;9.70;;;18.00;99.90;;;;;;5011399;28;20515;-83
2021/10/08 09:49:22;;;;;;;9.53;8.50;;;18.80;99.90;;;;;;5012139;28;20436;-82
2021/10/08 09:51:48;;;;;;;10.47;9.43;;;18.40;99.90;;;;;;5011320;28;20630;-83
2021/10/08 09:54:14;;;;;;;10.93;8.40;;;17.90;99.90;;;;;;5014760;28;20452;-83
2021/10/08 09:56:42;;;;;;;9.37;8.43;;;18.10;99.90;;;;;;5014184;28;20440;-82
2021/10/08 09:59:13;;;;;;;10.53;7.97;;;18.30;99.90;;;;;;5010681;28;20455;-83
2021/10/08 10:01:41;;;;;;;10.47;8.33;;;19.10;99.90;;;;;;5011913;28;20432;-83
2021/10/08 10:04:09;;;;;;;10.70;9.67;;;19.10;99.90;;;;;;5013041;28;20425;-83
2021/10/08 10:06:37;;;;;;;12.27;8.10;;;18.90;99.90;;;;;;5020977;28;20872;-82
2021/10/08 10:09:08;;;;;;;13.60;8.37;;;17.80;99.90;;;;;;5011127;28;20436;-83
2021/10/08 10:11:36;;;;;;;10.70;8.97;;;18.50;99.90;;;;;;5008497;28;20555;-81
2021/10/08 10:14:02;;;;;;;10.17;8.67;;;18.70;99.90;;;;;;5021127;28;20435;-79
2021/10/08 10:16:31;;;;;;;13.27;7.80;;;18.80;99.90;;;;;;5020589;28;20436;-81
2021/10/08 10:18:58;;;;;;;9.90;8.03;;;18.40;99.90;;;;;;5000728;28;20255;-81
2021/10/08 10:21:26;;;;;;;11.47;9.90;;;18.30;99.90;;;;;;5009312;28;20839;-82
2021/10/08 10:23:58;;;;;;;10.70;8.40;;;17.70;99.90;;;;;;5014233;28;20448;-81
2021/10/08 10:26:27;;;;;;;10.20;8.47;;;17.20;99.90;;;;;;5008085;28;20505;-81
2021/10/08 10:28:55;;;;;;;11.07;8.80;;;17.30;99.90;;;;;;5030836;28;20517;-79
2021/10/08 10:31:29;;;;;;;15.07;8.47;;;17.00;99.90;;;;;;5015297;28;20468;-79
2021/10/08 10:34:08;;;;;;;12.60;8.60;;;16.90;99.90;;;;;;5023227;28;20453;-80
2021/10/08 10:36:43;;;;;;;13.90;8.37;;;17.10;99.90;;;;;;4981911;28;21039;-82
2021/10/08 10:39:19;;;;;;;8.80;7.00;;;16.90;99.90;;;;;;4967122;28;20472;-82
2021/10/08 10:42:17;;;;;;;10.83;8.30;;;16.60;99.90;;;;;;4994197;28;20453;-78
2021/10/08 10:45:11;;;;;;;9.80;7.20;;;15.90;99.90;;;;;;4932053;29;20452;-82
2021/10/08 10:47:46;;;;;;;9.50;8.50;;;16.30;99.90;;;;;;4912383;29;20448;-81
2021/10/08 10:50:26;;;;;;;10.87;8.17;;;16.50;99.90;;;;;;4861907;29;20508;-81
2021/10/08 10:53:00;;;;;;;11.03;7.87;;;17.50;99.90;;;;;;4879713;29;20510;-80
2021/10/08 10:55:45;;;;;;;9.83;8.53;;;17.70;99.90;;;;;;4857591;29;20446;-81
2021/10/08 10:58:19;;;;;;;10.67;7.97;;;18.00;99.90;;;;;;4831867;29;20491;-81
2021/10/08 11:00:46;;;;;;;9.10;8.20;;;18.40;99.90;;;;;;4852104;29;20451;-81
2021/10/08 11:03:17;;;;;;;8.90;8.00;;;19.60;99.90;;;;;;4836738;29;20455;-80
2021/10/08 11:06:10;;;;;;;8.20;7.40;;;19.80;99.90;;;;;;4860489;29;20496;-81
2021/10/08 11:09:08;;;;;;;9.27;7.90;;;20.70;99.90;;;;;;4866790;29;20507;-81
2021/10/08 11:11:34;;;;;;;8.03;7.27;;;21.30;99.90;;;;;;4861692;29;20451;-82
2021/10/08 11:14:17;;;;;;;10.60;8.10;;;21.00;99.90;;;;;;4861413;29;20559;-83
2021/10/08 11:16:43;;;;;;;7.83;7.13;;;21.30;99.90;;;;;;4864552;29;20207;-82
2021/10/08 11:19:37;;;;;;;8.03;7.20;;;21.20;99.90;;;;;;4864126;29;20474;-83
2021/10/08 11:22:03;;;;;;;11.30;8.00;;;21.60;99.90;;;;;;4842988;29;20230;-80
2021/10/08 11:24:29;;;;;;;8.03;7.07;;;20.70;99.90;;;;;;4845051;29;20443;-81
2021/10/08 11:26:59;;;;;;;9.27;8.10;;;20.90;99.90;;;;;;4882576;29;20294;-83
2021/10/08 11:29:30;;;;;;;9.93;7.03;;;20.90;99.90;;;;;;4935360;29;20294;-80
2021/10/08 11:32:01;;;;;;;7.87;7.07;;;22.20;99.90;;;;;;4923899;29;20515;-83
2021/10/08 11:34:27;;;;;;;9.00;8.20;;;22.30;99.90;;;;;;4946822;28;20447;-83
2021/10/08 11:36:56;;;;;;;10.67;9.20;;;21.10;99.90;;;;;;4986210;28;21006;-82
2021/10/08 11:39:23;;;;;;;10.00;8.97;;;21.30;99.90;;;;;;4981997;28;20266;-79
2021/10/08 11:42:20;;;;;;;16.47;8.70;;;21.10;99.90;;;;;;4986202;28;20420;-78
2021/10/08 11:45:01;;;;;;;11.43;10.23;;;20.10;99.90;;;;;;5010055;28;20452;-79
2021/10/08 11:47:34;;;;;;;9.57;8.50;;;19.90;99.90;;;;;;5007804;28;20456;-81
2021/10/08 11:50:26;;;;;;;10.60;8.97;;;20.60;99.90;;;;;;5006458;28;20440;-81
2021/10/08 11:52:55;;;;;;;10.47;8.00;;;20.40;99.90;;;;;;4993275;28;20462;-78
2021/10/08 11:55:25;;;;;;;10.87;9.20;;;20.40;99.90;;;;;;5006632;28;20433;-80
2021/10/08 11:57:57;;;;;;;9.33;8.50;;;20.70;99.90;;;;;;5004958;28;20432;-80
2021/10/08 12:00:27;;;;;;;12.60;9.80;;;20.90;99.90;;;;;;5005757;28;20440;-79
2021/10/08 12:03:02;;;;;;;11.07;8.80;;;20.90;99.90;;;;;;4990693;28;20466;-81
2021/10/08 12:05:47;;;;;;;16.90;9.63;;;22.20;99.90;;;;;;5003303;28;20910;-80
2021/10/08 12:08:16;;;;;;;10.57;8.40;;;21.70;99.90;;;;;;5013425;28;20443;-79
2021/10/08 12:10:52;;;;;;;10.03;9.03;;;20.20;99.90;;;;;;5005857;28;21940;-81
2021/10/08 12:13:19;;;;;;;10.70;9.40;;;21.00;99.90;;;;;;4972446;28;20443;-83
2021/10/08 12:15:44;;;;;;;12.27;10.20;;;21.20;99.90;;;;;;5010588;28;20478;-83
2021/10/08 12:18:15;;;;;;;10.70;9.40;;;21.40;99.90;;;;;;5021222;28;20468;-82
2021/10/08 12:20:42;;;;;;;11.73;10.23;;;22.10;99.90;;;;;;5019873;28;20201;-81
2021/10/08 12:23:20;;;;;;;11.60;10.03;;;21.50;99.90;;;;;;5014848;28;20424;-82
2021/10/08 12:25:50;;;;;;;14.57;9.63;;;21.60;99.90;;;;;;5006601;28;20463;-82
2021/10/08 12:28:18;;;;;;;10.53;9.07;;;21.10;99.90;;;;;;5008814;28;20437;-81
2021/10/08 12:31:03;;;;;;;11.73;10.20;;;22.20;99.90;;;;;;5004064;28;20530;-82
2021/10/08 12:33:35;;;;;;;13.97;9.83;;;21.30;99.90;;;;;;5013830;28;20470;-81
2021/10/08 12:36:23;;;;;;;11.87;9.73;;;20.40;99.90;;;;;;5005580;28;20447;-81
2021/10/08 12:38:54;;;;;;;14.60;11.40;;;21.10;99.90;;;;;;5020334;28;20834;-81
2021/10/08 12:41:25;;;;;;;18.60;11.17;;;21.40;99.90;;;;;;5008226;28;20459;-82
2021/10/08 12:44:06;;;;;;;14.10;11.23;;;21.00;99.90;;;;;;5010392;28;20462;-80
2021/10/08 12:46:36;;;;;;;12.07;9.23;;;20.80;99.90;;;;;;5009477;28;20435;-81
2021/10/08 12:49:03;;;;;;;12.40;11.20;;;21.10;99.90;;;;;;5009099;28;20436;-80